South Arkansas Regional At Goodwin Field
KELD : now visible

Airfield :











YOU CAN JOIN US ON...

 
LOGIN :

Register | Disclaimer

   EN    FR    IT 

 









Legend :    VFR   Marginal VFR   IFR   Intensive IFR   Very Intensive IFR
Visi :
Ceiling :
>= 8 km
>= 3000ft
5 to 8 km
1000 to 3000 ft
1500m to 5 km
500 to 1000 ft
800 to 1500m
200 to 500 ft
< 800m
< 200 ft
Symbols :   Thunderstorms  Fog  Heavy snow  Heavy precipitations  Wind > 20 kt






- Airport Elevation : 277 ft
- IATA code : ELD


KELD - South Arkansas Regional At Goodwin Field

CURRENT METAR :
  • 181653Z AUTO 20004KT 10SM BKN040 OVC048 15/15 A3017 RMK AO2 RAB1556E36 SLP214 P0011 T01500150

EXPIRED METARs :
  • 181633Z AUTO 28005KT 7SM -RA SCT025 OVC046 15/14 A3017 RMK AO2 RAB1556 P0011 T01500144
  • 181615Z AUTO 28007KT 4SM -RA BR SCT007 SCT017 OVC024 16/15 A3018 RMK AO2 RAB1556 P0011 T01560150
  • 181602Z AUTO 30009G19KT 1 1/4SM RA BR SCT007 BKN011 OVC037 17/16 A3016 RMK AO2 RAB1556 P0010 T01670161
  • 181557Z AUTO 29010G19KT 2 1/2SM -RA BR BKN007 BKN015 OVC021 17/17 A3016 RMK AO2 RAB56 PRESRR P0007 T01720172
  • 181546Z AUTO 21005KT 10SM FEW008 BKN011 OVC033 19/19 A3014 RMK AO2 RAE30 P0002 T01890189
  • 181453Z AUTO 21007G15KT 10SM -RA OVC008 18/18 A3012 RMK AO2 RAB53 SLP199 P0000 60000 T01830178 53011

TAF KELD
Valid from the 18 at 12:00 until the 19 at 12:00 UTC


181140Z 1812/1912 20010G16KT 6SM -SHRA BR OVC008
FM181500 22010KT 5SM SHRA BR OVC009
FM181800 29010G17KT P6SM OVC050
FM182100 32013G20KT P6SM FEW250
FM190000 35009KT P6SM SKC



MET'MAP, your aeronautical weather chart ! - Copyright ORBIFLY December 2007 - Disclaimer

ORBIFLY MET'MAP TEAM :

Programming & Development : Alexandra Zaïnal
Concept & original design : Baudouin d'Aumeries
Assistance for programming : Marc-Olivier Méhu
Technical & hardware support : Manuel Goepfert

Contact : metmap@orbifly.com




SOURCES & CREDITS :

   NOAA       Earth
Advisory